sensor_id;sensor_type;location;lat;lon;timestamp;temperature;humidity
17489;DHT22;8861;52.644;4.734;2022-12-07T00:01:26;5.10;99.90
17489;DHT22;8861;52.644;4.734;2022-12-07T00:03:55;5.10;99.90
17489;DHT22;8861;52.644;4.734;2022-12-07T00:06:28;5.10;99.90
17489;DHT22;8861;52.644;4.734;2022-12-07T00:08:55;5.00;99.90
17489;DHT22;8861;52.644;4.734;2022-12-07T00:11:23;5.00;99.90
17489;DHT22;8861;52.644;4.734;2022-12-07T00:13:52;4.90;99.90
17489;DHT22;8861;52.644;4.734;2022-12-07T00:16:20;4.90;99.90
17489;DHT22;8861;52.644;4.734;2022-12-07T00:18:47;4.90;99.90
17489;DHT22;8861;52.644;4.734;2022-12-07T00:21:15;5.00;99.90
17489;DHT22;8861;52.644;4.734;2022-12-07T00:23:45;5.00;99.90
17489;DHT22;8861;52.644;4.734;2022-12-07T00:26:14;5.20;99.90
17489;DHT22;8861;52.644;4.734;2022-12-07T00:28:44;5.20;99.90
17489;DHT22;8861;52.644;4.734;2022-12-07T00:31:12;5.30;99.90
17489;DHT22;8861;52.644;4.734;2022-12-07T00:33:39;5.40;99.90
17489;DHT22;8861;52.644;4.734;2022-12-07T00:36:12;5.40;99.90
17489;DHT22;8861;52.644;4.734;2022-12-07T00:38:40;5.40;99.90
17489;DHT22;8861;52.644;4.734;2022-12-07T00:41:11;5.50;99.90
17489;DHT22;8861;52.644;4.734;2022-12-07T00:43:38;5.40;99.90
17489;DHT22;8861;52.644;4.734;2022-12-07T00:46:06;5.40;99.90
17489;DHT22;8861;52.644;4.734;2022-12-07T00:48:33;5.30;99.90
17489;DHT22;8861;52.644;4.734;2022-12-07T00:51:01;5.20;99.90
17489;DHT22;8861;52.644;4.734;2022-12-07T00:53:28;5.10;99.90
17489;DHT22;8861;52.644;4.734;2022-12-07T00:55:55;5.10;99.90
17489;DHT22;8861;52.644;4.734;2022-12-07T00:58:23;5.00;99.90
17489;DHT22;8861;52.644;4.734;2022-12-07T01:00:50;5.00;99.90
17489;DHT22;8861;52.644;4.734;2022-12-07T01:03:18;4.90;99.90
17489;DHT22;8861;52.644;4.734;2022-12-07T01:05:52;4.80;99.90
17489;DHT22;8861;52.644;4.734;2022-12-07T01:08:20;4.80;99.90
17489;DHT22;8861;52.644;4.734;2022-12-07T01:10:47;4.70;99.90
17489;DHT22;8861;52.644;4.734;2022-12-07T01:13:15;4.70;99.90
17489;DHT22;8861;52.644;4.734;2022-12-07T01:15:44;4.70;99.90
17489;DHT22;8861;52.644;4.734;2022-12-07T01:18:11;4.70;99.90
17489;DHT22;8861;52.644;4.734;2022-12-07T01:20:38;4.70;99.90
17489;DHT22;8861;52.644;4.734;2022-12-07T01:23:05;4.70;99.90
17489;DHT22;8861;52.644;4.734;2022-12-07T01:25:32;4.60;99.90
17489;DHT22;8861;52.644;4.734;2022-12-07T01:27:59;4.60;99.90
17489;DHT22;8861;52.644;4.734;2022-12-07T01:30:26;4.70;99.90
17489;DHT22;8861;52.644;4.734;2022-12-07T01:32:55;4.80;99.90
17489;DHT22;8861;52.644;4.734;2022-12-07T01:35:21;4.90;99.90
17489;DHT22;8861;52.644;4.734;2022-12-07T01:37:48;4.90;99.90
17489;DHT22;8861;52.644;4.734;2022-12-07T01:40:15;4.90;99.90
17489;DHT22;8861;52.644;4.734;2022-12-07T01:42:42;4.90;99.90
17489;DHT22;8861;52.644;4.734;2022-12-07T01:45:36;4.90;99.90
17489;DHT22;8861;52.644;4.734;2022-12-07T01:48:05;5.00;99.90
17489;DHT22;8861;52.644;4.734;2022-12-07T01:50:33;5.00;99.90
17489;DHT22;8861;52.644;4.734;2022-12-07T01:53:04;5.00;99.90
17489;DHT22;8861;52.644;4.734;2022-12-07T01:55:33;5.00;99.90
17489;DHT22;8861;52.644;4.734;2022-12-07T01:58:00;5.00;99.90
17489;DHT22;8861;52.644;4.734;2022-12-07T02:00:27;5.00;99.90
17489;DHT22;8861;52.644;4.734;2022-12-07T02:03:03;4.90;99.90
17489;DHT22;8861;52.644;4.734;2022-12-07T02:05:32;4.90;99.90
17489;DHT22;8861;52.644;4.734;2022-12-07T02:08:00;4.90;99.90
17489;DHT22;8861;52.644;4.734;2022-12-07T02:10:30;4.80;99.90
17489;DHT22;8861;52.644;4.734;2022-12-07T02:13:00;4.70;99.90
17489;DHT22;8861;52.644;4.734;2022-12-07T02:15:36;4.70;99.90
17489;DHT22;8861;52.644;4.734;2022-12-07T02:18:08;4.60;99.90
17489;DHT22;8861;52.644;4.734;2022-12-07T02:20:40;4.60;99.90
17489;DHT22;8861;52.644;4.734;2022-12-07T02:23:40;4.60;99.90
17489;DHT22;8861;52.644;4.734;2022-12-07T02:29:17;4.80;99.90
17489;DHT22;8861;52.644;4.734;2022-12-07T02:31:49;5.00;99.90
17489;DHT22;8861;52.644;4.734;2022-12-07T02:34:21;5.10;99.90
17489;DHT22;8861;52.644;4.734;2022-12-07T02:36:57;5.20;99.90
17489;DHT22;8861;52.644;4.734;2022-12-07T02:39:33;5.20;99.90
17489;DHT22;8861;52.644;4.734;2022-12-07T02:42:05;5.20;99.90
17489;DHT22;8861;52.644;4.734;2022-12-07T02:44:35;5.20;99.90
17489;DHT22;8861;52.644;4.734;2022-12-07T02:47:07;5.10;99.90
17489;DHT22;8861;52.644;4.734;2022-12-07T02:49:36;5.00;99.90
17489;DHT22;8861;52.644;4.734;2022-12-07T02:52:04;5.00;99.90
17489;DHT22;8861;52.644;4.734;2022-12-07T02:54:31;5.00;99.90
17489;DHT22;8861;52.644;4.734;2022-12-07T02:57:04;5.00;99.90
17489;DHT22;8861;52.644;4.734;2022-12-07T02:59:47;5.00;99.90
17489;DHT22;8861;52.644;4.734;2022-12-07T03:02:24;5.00;99.90
17489;DHT22;8861;52.644;4.734;2022-12-07T03:05:00;5.00;99.90
17489;DHT22;8861;52.644;4.734;2022-12-07T03:07:39;5.00;99.90
17489;DHT22;8861;52.644;4.734;2022-12-07T03:10:14;5.10;99.90
17489;DHT22;8861;52.644;4.734;2022-12-07T03:12:46;5.20;99.90
17489;DHT22;8861;52.644;4.734;2022-12-07T03:15:21;5.20;99.90
17489;DHT22;8861;52.644;4.734;2022-12-07T03:17:53;5.30;99.90
17489;DHT22;8861;52.644;4.734;2022-12-07T03:20:23;5.30;99.90
17489;DHT22;8861;52.644;4.734;2022-12-07T03:22:51;5.30;99.90
17489;DHT22;8861;52.644;4.734;2022-12-07T03:25:19;5.30;99.90
17489;DHT22;8861;52.644;4.734;2022-12-07T03:27:51;5.20;99.90
17489;DHT22;8861;52.644;4.734;2022-12-07T03:30:24;5.10;99.90
17489;DHT22;8861;52.644;4.734;2022-12-07T03:32:56;5.10;99.90
17489;DHT22;8861;52.644;4.734;2022-12-07T03:35:28;5.10;99.90
17489;DHT22;8861;52.644;4.734;2022-12-07T03:37:58;5.10;99.90
17489;DHT22;8861;52.644;4.734;2022-12-07T03:40:30;5.10;99.90
17489;DHT22;8861;52.644;4.734;2022-12-07T03:42:59;5.10;99.90
17489;DHT22;8861;52.644;4.734;2022-12-07T03:45:33;5.00;99.90
17489;DHT22;8861;52.644;4.734;2022-12-07T03:48:07;5.00;99.90
17489;DHT22;8861;52.644;4.734;2022-12-07T03:50:41;5.00;99.90
17489;DHT22;8861;52.644;4.734;2022-12-07T03:53:14;5.00;99.90
17489;DHT22;8861;52.644;4.734;2022-12-07T03:55:44;5.00;99.90
17489;DHT22;8861;52.644;4.734;2022-12-07T03:58:15;5.00;99.90
17489;DHT22;8861;52.644;4.734;2022-12-07T04:00:44;4.90;99.90
17489;DHT22;8861;52.644;4.734;2022-12-07T04:03:11;4.90;99.90
17489;DHT22;8861;52.644;4.734;2022-12-07T04:05:39;4.80;99.90
17489;DHT22;8861;52.644;4.734;2022-12-07T04:08:06;4.80;99.90
17489;DHT22;8861;52.644;4.734;2022-12-07T04:10:33;4.80;99.90
17489;DHT22;8861;52.644;4.734;2022-12-07T04:13:00;4.90;99.90
17489;DHT22;8861;52.644;4.734;2022-12-07T04:15:27;4.90;99.90
17489;DHT22;8861;52.644;4.734;2022-12-07T04:17:55;5.00;99.90
17489;DHT22;8861;52.644;4.734;2022-12-07T04:20:22;5.00;99.90
17489;DHT22;8861;52.644;4.734;2022-12-07T04:22:49;5.00;99.90
17489;DHT22;8861;52.644;4.734;2022-12-07T04:25:16;4.90;99.90
17489;DHT22;8861;52.644;4.734;2022-12-07T04:27:43;4.90;99.90
17489;DHT22;8861;52.644;4.734;2022-12-07T04:30:10;4.80;99.90
17489;DHT22;8861;52.644;4.734;2022-12-07T04:32:37;4.80;99.90
17489;DHT22;8861;52.644;4.734;2022-12-07T04:35:07;4.70;99.90
17489;DHT22;8861;52.644;4.734;2022-12-07T04:37:34;4.60;99.90
17489;DHT22;8861;52.644;4.734;2022-12-07T04:40:01;4.60;99.90
17489;DHT22;8861;52.644;4.734;2022-12-07T04:42:28;4.70;99.90
17489;DHT22;8861;52.644;4.734;2022-12-07T04:44:55;4.80;99.90
17489;DHT22;8861;52.644;4.734;2022-12-07T04:47:22;5.00;99.90
17489;DHT22;8861;52.644;4.734;2022-12-07T04:49:49;5.00;99.90
17489;DHT22;8861;52.644;4.734;2022-12-07T04:52:17;5.00;99.90
17489;DHT22;8861;52.644;4.734;2022-12-07T04:54:44;5.00;99.90
17489;DHT22;8861;52.644;4.734;2022-12-07T04:57:10;4.90;99.90
17489;DHT22;8861;52.644;4.734;2022-12-07T04:59:37;4.90;99.90
17489;DHT22;8861;52.644;4.734;2022-12-07T05:02:04;4.80;99.90
17489;DHT22;8861;52.644;4.734;2022-12-07T05:04:31;4.70;99.90
17489;DHT22;8861;52.644;4.734;2022-12-07T05:06:58;4.60;99.90
17489;DHT22;8861;52.644;4.734;2022-12-07T05:09:26;4.60;99.90
17489;DHT22;8861;52.644;4.734;2022-12-07T05:11:53;4.50;99.90
17489;DHT22;8861;52.644;4.734;2022-12-07T05:14:20;4.60;99.90
17489;DHT22;8861;52.644;4.734;2022-12-07T05:16:50;4.60;99.90
17489;DHT22;8861;52.644;4.734;2022-12-07T05:19:19;4.50;99.90
17489;DHT22;8861;52.644;4.734;2022-12-07T05:21:46;4.50;99.90
17489;DHT22;8861;52.644;4.734;2022-12-07T05:24:14;4.50;99.90
17489;DHT22;8861;52.644;4.734;2022-12-07T05:26:43;4.60;99.90
17489;DHT22;8861;52.644;4.734;2022-12-07T05:29:11;4.60;99.90
17489;DHT22;8861;52.644;4.734;2022-12-07T05:31:38;4.60;99.90
17489;DHT22;8861;52.644;4.734;2022-12-07T05:34:05;4.70;99.90
17489;DHT22;8861;52.644;4.734;2022-12-07T05:36:32;4.80;99.90
17489;DHT22;8861;52.644;4.734;2022-12-07T05:38:59;5.00;99.90
17489;DHT22;8861;52.644;4.734;2022-12-07T05:41:26;5.00;99.90
17489;DHT22;8861;52.644;4.734;2022-12-07T05:44:12;5.10;99.90
17489;DHT22;8861;52.644;4.734;2022-12-07T05:46:39;5.10;99.90
17489;DHT22;8861;52.644;4.734;2022-12-07T05:49:06;5.00;99.90
17489;DHT22;8861;52.644;4.734;2022-12-07T05:51:33;4.90;99.90
17489;DHT22;8861;52.644;4.734;2022-12-07T05:53:59;4.90;99.90
17489;DHT22;8861;52.644;4.734;2022-12-07T05:56:26;4.80;99.90
17489;DHT22;8861;52.644;4.734;2022-12-07T05:58:53;4.70;99.90
17489;DHT22;8861;52.644;4.734;2022-12-07T06:01:39;4.70;99.90
17489;DHT22;8861;52.644;4.734;2022-12-07T06:04:06;4.60;99.90
17489;DHT22;8861;52.644;4.734;2022-12-07T06:06:33;4.50;99.90
17489;DHT22;8861;52.644;4.734;2022-12-07T06:09:00;4.50;99.90
17489;DHT22;8861;52.644;4.734;2022-12-07T06:11:27;4.50;99.90
17489;DHT22;8861;52.644;4.734;2022-12-07T06:14:11;4.40;99.90
17489;DHT22;8861;52.644;4.734;2022-12-07T06:16:39;4.40;99.90
17489;DHT22;8861;52.644;4.734;2022-12-07T06:19:06;4.40;99.90
17489;DHT22;8861;52.644;4.734;2022-12-07T06:21:33;4.40;99.90
17489;DHT22;8861;52.644;4.734;2022-12-07T06:24:00;4.30;99.90
17489;DHT22;8861;52.644;4.734;2022-12-07T06:26:27;4.30;99.90
17489;DHT22;8861;52.644;4.734;2022-12-07T06:28:54;4.30;99.90
17489;DHT22;8861;52.644;4.734;2022-12-07T06:31:21;4.30;99.90
17489;DHT22;8861;52.644;4.734;2022-12-07T06:33:49;4.20;99.90
17489;DHT22;8861;52.644;4.734;2022-12-07T06:36:16;4.20;99.90
17489;DHT22;8861;52.644;4.734;2022-12-07T06:38:43;4.30;99.90
17489;DHT22;8861;52.644;4.734;2022-12-07T06:41:10;4.40;99.90
17489;DHT22;8861;52.644;4.734;2022-12-07T06:43:37;4.40;99.90
17489;DHT22;8861;52.644;4.734;2022-12-07T06:46:04;4.50;99.90
17489;DHT22;8861;52.644;4.734;2022-12-07T06:48:31;4.70;99.90
17489;DHT22;8861;52.644;4.734;2022-12-07T06:50:59;4.80;99.90
17489;DHT22;8861;52.644;4.734;2022-12-07T06:53:26;4.80;99.90
17489;DHT22;8861;52.644;4.734;2022-12-07T06:55:53;4.80;99.90
17489;DHT22;8861;52.644;4.734;2022-12-07T06:58:20;4.80;99.90
17489;DHT22;8861;52.644;4.734;2022-12-07T07:00:48;4.70;99.90
17489;DHT22;8861;52.644;4.734;2022-12-07T07:03:16;4.60;99.90
17489;DHT22;8861;52.644;4.734;2022-12-07T07:05:43;4.50;99.90
17489;DHT22;8861;52.644;4.734;2022-12-07T07:08:12;4.50;99.90
17489;DHT22;8861;52.644;4.734;2022-12-07T07:10:39;4.50;99.90
17489;DHT22;8861;52.644;4.734;2022-12-07T07:13:07;4.50;99.90
17489;DHT22;8861;52.644;4.734;2022-12-07T07:15:35;4.60;99.90
17489;DHT22;8861;52.644;4.734;2022-12-07T07:18:04;4.60;99.90
17489;DHT22;8861;52.644;4.734;2022-12-07T07:20:31;4.70;99.90
17489;DHT22;8861;52.644;4.734;2022-12-07T07:22:57;4.70;99.90
17489;DHT22;8861;52.644;4.734;2022-12-07T07:25:26;4.80;99.90
17489;DHT22;8861;52.644;4.734;2022-12-07T07:27:53;4.80;99.90
17489;DHT22;8861;52.644;4.734;2022-12-07T07:30:20;4.80;99.90
17489;DHT22;8861;52.644;4.734;2022-12-07T07:32:47;4.80;99.90
17489;DHT22;8861;52.644;4.734;2022-12-07T07:35:14;4.70;99.90
17489;DHT22;8861;52.644;4.734;2022-12-07T07:37:41;4.60;99.90
17489;DHT22;8861;52.644;4.734;2022-12-07T07:40:09;4.50;99.90
17489;DHT22;8861;52.644;4.734;2022-12-07T07:42:37;4.40;99.90
17489;DHT22;8861;52.644;4.734;2022-12-07T07:45:05;4.40;99.90
17489;DHT22;8861;52.644;4.734;2022-12-07T07:47:32;4.40;99.90
17489;DHT22;8861;52.644;4.734;2022-12-07T07:49:59;4.40;99.90
17489;DHT22;8861;52.644;4.734;2022-12-07T07:52:26;4.40;99.90
17489;DHT22;8861;52.644;4.734;2022-12-07T07:54:53;4.40;99.90
17489;DHT22;8861;52.644;4.734;2022-12-07T07:57:20;4.50;99.90
17489;DHT22;8861;52.644;4.734;2022-12-07T07:59:48;4.60;99.90
17489;DHT22;8861;52.644;4.734;2022-12-07T08:02:16;4.60;99.90
17489;DHT22;8861;52.644;4.734;2022-12-07T08:04:44;4.70;99.90
17489;DHT22;8861;52.644;4.734;2022-12-07T08:07:12;4.80;99.90
17489;DHT22;8861;52.644;4.734;2022-12-07T08:09:39;4.80;99.90
17489;DHT22;8861;52.644;4.734;2022-12-07T08:12:07;4.90;99.90
17489;DHT22;8861;52.644;4.734;2022-12-07T08:14:34;4.90;99.90
17489;DHT22;8861;52.644;4.734;2022-12-07T08:17:03;4.90;99.90
17489;DHT22;8861;52.644;4.734;2022-12-07T08:19:30;5.00;99.90
17489;DHT22;8861;52.644;4.734;2022-12-07T08:21:56;5.00;99.90
17489;DHT22;8861;52.644;4.734;2022-12-07T08:24:24;5.00;99.90
17489;DHT22;8861;52.644;4.734;2022-12-07T08:26:52;5.10;99.90
17489;DHT22;8861;52.644;4.734;2022-12-07T08:29:19;5.10;99.90
17489;DHT22;8861;52.644;4.734;2022-12-07T08:31:46;5.20;99.90
17489;DHT22;8861;52.644;4.734;2022-12-07T08:34:14;5.20;99.90
17489;DHT22;8861;52.644;4.734;2022-12-07T08:36:41;5.10;99.90
17489;DHT22;8861;52.644;4.734;2022-12-07T08:39:08;5.10;99.90
17489;DHT22;8861;52.644;4.734;2022-12-07T08:41:35;5.00;99.90
17489;DHT22;8861;52.644;4.734;2022-12-07T08:44:03;4.90;99.90
17489;DHT22;8861;52.644;4.734;2022-12-07T08:46:32;4.90;99.90
17489;DHT22;8861;52.644;4.734;2022-12-07T08:49:04;5.00;99.90
17489;DHT22;8861;52.644;4.734;2022-12-07T08:51:33;5.10;99.90
17489;DHT22;8861;52.644;4.734;2022-12-07T08:54:02;5.20;99.90
17489;DHT22;8861;52.644;4.734;2022-12-07T08:56:30;5.20;99.90
17489;DHT22;8861;52.644;4.734;2022-12-07T08:58:58;5.20;99.90
17489;DHT22;8861;52.644;4.734;2022-12-07T09:01:25;5.10;99.90
17489;DHT22;8861;52.644;4.734;2022-12-07T09:03:52;5.00;99.90
17489;DHT22;8861;52.644;4.734;2022-12-07T09:06:19;5.10;99.90
17489;DHT22;8861;52.644;4.734;2022-12-07T09:08:50;5.20;99.90
17489;DHT22;8861;52.644;4.734;2022-12-07T09:11:18;5.40;99.90
17489;DHT22;8861;52.644;4.734;2022-12-07T09:13:44;5.40;99.90
17489;DHT22;8861;52.644;4.734;2022-12-07T09:16:11;5.50;99.90
17489;DHT22;8861;52.644;4.734;2022-12-07T09:18:38;5.50;99.90
17489;DHT22;8861;52.644;4.734;2022-12-07T09:21:05;5.50;99.90
17489;DHT22;8861;52.644;4.734;2022-12-07T09:23:32;5.40;99.90
17489;DHT22;8861;52.644;4.734;2022-12-07T09:26:01;5.40;99.90
17489;DHT22;8861;52.644;4.734;2022-12-07T09:28:28;5.30;99.90
17489;DHT22;8861;52.644;4.734;2022-12-07T09:30:55;5.30;99.90
17489;DHT22;8861;52.644;4.734;2022-12-07T09:33:22;5.20;99.90
17489;DHT22;8861;52.644;4.734;2022-12-07T09:35:50;5.20;99.90
17489;DHT22;8861;52.644;4.734;2022-12-07T09:38:18;5.20;99.90
17489;DHT22;8861;52.644;4.734;2022-12-07T09:40:46;5.20;99.90
17489;DHT22;8861;52.644;4.734;2022-12-07T09:43:16;5.20;99.90
17489;DHT22;8861;52.644;4.734;2022-12-07T09:45:44;5.20;99.90
17489;DHT22;8861;52.644;4.734;2022-12-07T09:48:17;5.20;99.90
17489;DHT22;8861;52.644;4.734;2022-12-07T09:50:45;5.30;99.90
17489;DHT22;8861;52.644;4.734;2022-12-07T09:53:15;5.40;99.90
17489;DHT22;8861;52.644;4.734;2022-12-07T09:55:44;5.50;99.90
17489;DHT22;8861;52.644;4.734;2022-12-07T09:58:19;5.70;99.90
17489;DHT22;8861;52.644;4.734;2022-12-07T10:00:47;5.90;99.90
17489;DHT22;8861;52.644;4.734;2022-12-07T10:03:14;6.10;99.90
17489;DHT22;8861;52.644;4.734;2022-12-07T10:05:45;6.40;99.90
17489;DHT22;8861;52.644;4.734;2022-12-07T10:08:13;6.70;99.90
17489;DHT22;8861;52.644;4.734;2022-12-07T10:10:41;6.90;99.90
17489;DHT22;8861;52.644;4.734;2022-12-07T10:13:09;6.90;99.90
17489;DHT22;8861;52.644;4.734;2022-12-07T10:15:47;6.80;99.90
17489;DHT22;8861;52.644;4.734;2022-12-07T10:18:20;6.70;99.90
17489;DHT22;8861;52.644;4.734;2022-12-07T10:20:47;6.60;99.90
17489;DHT22;8861;52.644;4.734;2022-12-07T10:23:15;6.50;99.90
17489;DHT22;8861;52.644;4.734;2022-12-07T10:25:43;6.40;99.90
17489;DHT22;8861;52.644;4.734;2022-12-07T10:28:13;6.40;99.90
17489;DHT22;8861;52.644;4.734;2022-12-07T10:30:54;6.40;99.90
17489;DHT22;8861;52.644;4.734;2022-12-07T10:33:32;6.50;99.90
17489;DHT22;8861;52.644;4.734;2022-12-07T10:36:01;6.50;99.90
17489;DHT22;8861;52.644;4.734;2022-12-07T10:38:44;6.70;99.90
17489;DHT22;8861;52.644;4.734;2022-12-07T10:41:11;7.10;99.90
17489;DHT22;8861;52.644;4.734;2022-12-07T10:43:47;7.50;99.90
17489;DHT22;8861;52.644;4.734;2022-12-07T10:50:02;7.60;99.90
17489;DHT22;8861;52.644;4.734;2022-12-07T10:52:45;7.60;99.90
17489;DHT22;8861;52.644;4.734;2022-12-07T10:55:21;7.60;99.90
17489;DHT22;8861;52.644;4.734;2022-12-07T11:00:41;7.70;99.90
17489;DHT22;8861;52.644;4.734;2022-12-07T11:03:26;7.80;99.90
17489;DHT22;8861;52.644;4.734;2022-12-07T11:06:02;7.70;99.90
17489;DHT22;8861;52.644;4.734;2022-12-07T11:08:47;7.70;99.90
17489;DHT22;8861;52.644;4.734;2022-12-07T11:11:24;7.70;99.90
17489;DHT22;8861;52.644;4.734;2022-12-07T11:14:01;7.70;99.90
17489;DHT22;8861;52.644;4.734;2022-12-07T11:16:52;7.70;99.90
17489;DHT22;8861;52.644;4.734;2022-12-07T11:19:43;7.80;99.90
17489;DHT22;8861;52.644;4.734;2022-12-07T11:22:20;7.70;99.90
17489;DHT22;8861;52.644;4.734;2022-12-07T11:24:54;7.70;99.90
17489;DHT22;8861;52.644;4.734;2022-12-07T11:27:31;7.60;99.90
17489;DHT22;8861;52.644;4.734;2022-12-07T11:30:08;7.70;99.90
17489;DHT22;8861;52.644;4.734;2022-12-07T11:32:54;7.80;99.90
17489;DHT22;8861;52.644;4.734;2022-12-07T11:35:32;7.80;99.90
17489;DHT22;8861;52.644;4.734;2022-12-07T11:38:09;7.70;99.90
17489;DHT22;8861;52.644;4.734;2022-12-07T11:40:38;7.60;99.90
17489;DHT22;8861;52.644;4.734;2022-12-07T11:43:15;7.60;99.90
17489;DHT22;8861;52.644;4.734;2022-12-07T11:45:47;7.60;99.90
17489;DHT22;8861;52.644;4.734;2022-12-07T11:48:20;7.70;99.90
17489;DHT22;8861;52.644;4.734;2022-12-07T11:50:54;7.60;99.90
17489;DHT22;8861;52.644;4.734;2022-12-07T11:53:26;7.50;99.90
17489;DHT22;8861;52.644;4.734;2022-12-07T11:55:58;7.30;99.90
17489;DHT22;8861;52.644;4.734;2022-12-07T11:58:44;7.00;99.90
17489;DHT22;8861;52.644;4.734;2022-12-07T12:01:26;6.90;99.90
17489;DHT22;8861;52.644;4.734;2022-12-07T12:04:01;6.80;99.90
17489;DHT22;8861;52.644;4.734;2022-12-07T12:06:30;6.60;99.90
17489;DHT22;8861;52.644;4.734;2022-12-07T12:09:04;6.50;99.90
17489;DHT22;8861;52.644;4.734;2022-12-07T12:11:46;6.50;99.90
17489;DHT22;8861;52.644;4.734;2022-12-07T12:14:31;6.40;99.90
17489;DHT22;8861;52.644;4.734;2022-12-07T12:17:34;6.50;99.90
17489;DHT22;8861;52.644;4.734;2022-12-07T12:20:06;6.60;99.90
17489;DHT22;8861;52.644;4.734;2022-12-07T12:22:45;6.70;99.90
17489;DHT22;8861;52.644;4.734;2022-12-07T12:25:21;6.80;99.90
17489;DHT22;8861;52.644;4.734;2022-12-07T12:27:49;7.00;99.90
17489;DHT22;8861;52.644;4.734;2022-12-07T12:30:35;7.10;99.90
17489;DHT22;8861;52.644;4.734;2022-12-07T12:33:12;7.20;99.90
17489;DHT22;8861;52.644;4.734;2022-12-07T12:35:39;7.20;99.90
17489;DHT22;8861;52.644;4.734;2022-12-07T12:38:35;7.30;99.90
17489;DHT22;8861;52.644;4.734;2022-12-07T12:41:57;7.30;99.90
17489;DHT22;8861;52.644;4.734;2022-12-07T12:47:58;7.50;99.90
17489;DHT22;8861;52.644;4.734;2022-12-07T12:50:30;7.60;99.90
17489;DHT22;8861;52.644;4.734;2022-12-07T12:56:07;7.90;99.90
17489;DHT22;8861;52.644;4.734;2022-12-07T12:58:42;8.00;99.90
17489;DHT22;8861;52.644;4.734;2022-12-07T13:01:44;8.00;99.90
17489;DHT22;8861;52.644;4.734;2022-12-07T13:04:34;8.00;99.90
17489;DHT22;8861;52.644;4.734;2022-12-07T13:07:02;8.00;99.90
17489;DHT22;8861;52.644;4.734;2022-12-07T13:09:30;8.00;99.90
17489;DHT22;8861;52.644;4.734;2022-12-07T13:12:03;7.90;99.90
17489;DHT22;8861;52.644;4.734;2022-12-07T13:14:42;7.90;99.90
17489;DHT22;8861;52.644;4.734;2022-12-07T13:17:10;7.90;99.90
17489;DHT22;8861;52.644;4.734;2022-12-07T13:19:58;7.90;99.90
17489;DHT22;8861;52.644;4.734;2022-12-07T13:22:42;7.90;99.90
17489;DHT22;8861;52.644;4.734;2022-12-07T13:25:12;7.80;99.90
17489;DHT22;8861;52.644;4.734;2022-12-07T13:27:51;7.80;99.90
17489;DHT22;8861;52.644;4.734;2022-12-07T13:30:21;7.80;99.90
17489;DHT22;8861;52.644;4.734;2022-12-07T13:32:52;7.80;99.90
17489;DHT22;8861;52.644;4.734;2022-12-07T13:35:37;7.70;99.90
17489;DHT22;8861;52.644;4.734;2022-12-07T13:38:14;7.70;99.90
17489;DHT22;8861;52.644;4.734;2022-12-07T13:41:03;7.60;99.90
17489;DHT22;8861;52.644;4.734;2022-12-07T13:43:31;7.60;99.90
17489;DHT22;8861;52.644;4.734;2022-12-07T13:46:09;7.50;99.90
17489;DHT22;8861;52.644;4.734;2022-12-07T13:48:44;7.50;99.90
17489;DHT22;8861;52.644;4.734;2022-12-07T13:51:18;7.40;99.90
17489;DHT22;8861;52.644;4.734;2022-12-07T13:53:50;7.40;99.90
17489;DHT22;8861;52.644;4.734;2022-12-07T13:56:18;7.30;99.90
17489;DHT22;8861;52.644;4.734;2022-12-07T13:58:49;7.30;99.90
17489;DHT22;8861;52.644;4.734;2022-12-07T14:01:15;7.20;99.90
17489;DHT22;8861;52.644;4.734;2022-12-07T14:03:44;7.10;99.90
17489;DHT22;8861;52.644;4.734;2022-12-07T14:06:16;7.10;99.90
17489;DHT22;8861;52.644;4.734;2022-12-07T14:08:44;7.00;99.90
17489;DHT22;8861;52.644;4.734;2022-12-07T14:11:16;7.00;99.90
17489;DHT22;8861;52.644;4.734;2022-12-07T14:13:59;7.00;99.90
17489;DHT22;8861;52.644;4.734;2022-12-07T14:16:29;7.00;99.90
17489;DHT22;8861;52.644;4.734;2022-12-07T14:18:57;7.00;99.90
17489;DHT22;8861;52.644;4.734;2022-12-07T14:21:26;6.90;99.90
17489;DHT22;8861;52.644;4.734;2022-12-07T14:24:10;7.00;99.90
17489;DHT22;8861;52.644;4.734;2022-12-07T14:26:38;7.00;99.90
17489;DHT22;8861;52.644;4.734;2022-12-07T14:29:32;7.00;99.90
17489;DHT22;8861;52.644;4.734;2022-12-07T14:32:17;6.90;99.90
17489;DHT22;8861;52.644;4.734;2022-12-07T14:34:56;6.90;99.90
17489;DHT22;8861;52.644;4.734;2022-12-07T14:37:24;6.90;99.90
17489;DHT22;8861;52.644;4.734;2022-12-07T14:39:51;6.90;99.90
17489;DHT22;8861;52.644;4.734;2022-12-07T14:42:18;6.90;99.90
17489;DHT22;8861;52.644;4.734;2022-12-07T14:44:47;6.80;99.90
17489;DHT22;8861;52.644;4.734;2022-12-07T14:47:14;6.80;99.90
17489;DHT22;8861;52.644;4.734;2022-12-07T14:49:41;6.80;99.90
17489;DHT22;8861;52.644;4.734;2022-12-07T14:52:13;6.80;99.90
17489;DHT22;8861;52.644;4.734;2022-12-07T14:54:41;6.70;99.90
17489;DHT22;8861;52.644;4.734;2022-12-07T14:57:09;6.70;99.90
17489;DHT22;8861;52.644;4.734;2022-12-07T14:59:36;6.70;99.90
17489;DHT22;8861;52.644;4.734;2022-12-07T15:02:05;6.70;99.90
17489;DHT22;8861;52.644;4.734;2022-12-07T15:04:32;6.70;99.90
17489;DHT22;8861;52.644;4.734;2022-12-07T15:07:01;6.60;99.90
17489;DHT22;8861;52.644;4.734;2022-12-07T15:09:29;6.60;99.90
17489;DHT22;8861;52.644;4.734;2022-12-07T15:11:56;6.50;99.90
17489;DHT22;8861;52.644;4.734;2022-12-07T15:14:22;6.50;99.90
17489;DHT22;8861;52.644;4.734;2022-12-07T15:16:49;6.50;99.90
17489;DHT22;8861;52.644;4.734;2022-12-07T15:19:19;6.50;99.90
17489;DHT22;8861;52.644;4.734;2022-12-07T15:21:48;6.50;99.90
17489;DHT22;8861;52.644;4.734;2022-12-07T15:24:16;6.40;99.90
17489;DHT22;8861;52.644;4.734;2022-12-07T15:26:43;6.40;99.90
17489;DHT22;8861;52.644;4.734;2022-12-07T15:29:11;6.40;99.90
17489;DHT22;8861;52.644;4.734;2022-12-07T15:31:40;6.40;99.90
17489;DHT22;8861;52.644;4.734;2022-12-07T15:34:07;6.40;99.90
17489;DHT22;8861;52.644;4.734;2022-12-07T15:36:35;6.50;99.90
17489;DHT22;8861;52.644;4.734;2022-12-07T15:39:02;6.50;99.90
17489;DHT22;8861;52.644;4.734;2022-12-07T15:41:30;6.50;99.90
17489;DHT22;8861;52.644;4.734;2022-12-07T15:43:57;6.40;99.90
17489;DHT22;8861;52.644;4.734;2022-12-07T15:46:41;6.40;99.90
17489;DHT22;8861;52.644;4.734;2022-12-07T15:49:11;6.40;99.90
17489;DHT22;8861;52.644;4.734;2022-12-07T15:51:40;6.30;99.90
17489;DHT22;8861;52.644;4.734;2022-12-07T15:54:11;6.30;99.90
17489;DHT22;8861;52.644;4.734;2022-12-07T15:56:39;6.30;99.90
17489;DHT22;8861;52.644;4.734;2022-12-07T15:59:06;6.30;99.90
17489;DHT22;8861;52.644;4.734;2022-12-07T16:01:33;6.30;99.90
17489;DHT22;8861;52.644;4.734;2022-12-07T16:04:00;6.40;99.90
17489;DHT22;8861;52.644;4.734;2022-12-07T16:06:27;6.40;99.90
17489;DHT22;8861;52.644;4.734;2022-12-07T16:08:56;6.30;99.90
17489;DHT22;8861;52.644;4.734;2022-12-07T16:11:22;6.00;99.90
17489;DHT22;8861;52.644;4.734;2022-12-07T16:13:49;5.70;99.90
17489;DHT22;8861;52.644;4.734;2022-12-07T16:16:18;5.40;99.90
17489;DHT22;8861;52.644;4.734;2022-12-07T16:18:48;5.30;99.90
17489;DHT22;8861;52.644;4.734;2022-12-07T16:21:16;5.20;99.90
17489;DHT22;8861;52.644;4.734;2022-12-07T16:23:43;5.20;99.90
17489;DHT22;8861;52.644;4.734;2022-12-07T16:26:14;5.20;99.90
17489;DHT22;8861;52.644;4.734;2022-12-07T16:28:42;5.20;99.90
17489;DHT22;8861;52.644;4.734;2022-12-07T16:31:12;5.20;99.90
17489;DHT22;8861;52.644;4.734;2022-12-07T16:33:40;5.10;99.90
17489;DHT22;8861;52.644;4.734;2022-12-07T16:36:09;5.10;99.90
17489;DHT22;8861;52.644;4.734;2022-12-07T16:38:37;5.10;99.90
17489;DHT22;8861;52.644;4.734;2022-12-07T16:41:05;5.10;99.90